createdAt,value
2019-02-21T00:00:48.299Z,15.23
2019-02-21T00:03:14.220Z,17.93
2019-02-21T00:05:40.028Z,16.50
2019-02-21T00:08:05.798Z,15.13
2019-02-21T00:10:31.569Z,16.13
2019-02-21T00:12:57.442Z,18.63
2019-02-21T00:15:23.201Z,17.23
2019-02-21T00:17:48.977Z,14.30
2019-02-21T00:20:14.734Z,16.00
2019-02-21T00:22:40.521Z,15.60
2019-02-21T00:25:06.269Z,15.17
2019-02-21T00:27:32.033Z,12.93
2019-02-21T00:29:57.795Z,11.60
2019-02-21T00:32:23.541Z,15.37
2019-02-21T00:34:49.311Z,12.70
2019-02-21T00:37:15.065Z,15.20
2019-02-21T00:39:40.856Z,15.00
2019-02-21T00:42:06.624Z,15.60
2019-02-21T00:44:32.396Z,15.43
2019-02-21T00:46:58.129Z,10.20
2019-02-21T00:49:23.909Z,12.97
2019-02-21T00:51:49.677Z,13.90
2019-02-21T00:54:15.439Z,11.30
2019-02-21T00:56:41.208Z,10.80
2019-02-21T00:59:06.965Z,13.07
2019-02-21T01:01:32.713Z,11.53
2019-02-21T01:03:58.480Z,10.37
2019-02-21T01:06:24.229Z,13.83
2019-02-21T01:08:50.010Z,9.10
2019-02-21T01:11:15.870Z,11.60
2019-02-21T01:13:41.635Z,15.23
2019-02-21T01:16:07.396Z,11.93
2019-02-21T01:18:33.166Z,11.00
2019-02-21T01:20:58.928Z,13.07
2019-02-21T01:23:24.672Z,13.40
2019-02-21T01:25:50.430Z,15.67
2019-02-21T01:28:16.177Z,12.87
2019-02-21T01:30:41.950Z,12.63
2019-02-21T01:33:07.712Z,15.07
2019-02-21T01:35:33.478Z,17.80
2019-02-21T01:37:59.226Z,14.50
2019-02-21T01:40:24.986Z,12.03
2019-02-21T01:42:50.740Z,16.57
2019-02-21T01:45:16.503Z,16.23
2019-02-21T01:47:42.250Z,16.10
2019-02-21T01:50:08.029Z,15.27
2019-02-21T01:52:33.818Z,12.10
2019-02-21T01:54:59.586Z,13.83
2019-02-21T01:57:25.340Z,15.37
2019-02-21T01:59:51.096Z,13.90
2019-02-21T02:02:16.864Z,17.00
2019-02-21T02:04:42.633Z,14.33
2019-02-21T02:07:08.396Z,16.33
2019-02-21T02:09:34.174Z,16.33
2019-02-21T02:11:59.928Z,16.63
2019-02-21T02:14:25.691Z,13.53
2019-02-21T02:16:51.462Z,13.87
2019-02-21T02:19:17.302Z,13.27
2019-02-21T02:21:43.107Z,14.07
2019-02-21T02:24:08.854Z,17.30
2019-02-21T02:26:34.617Z,18.00
2019-02-21T02:29:00.375Z,18.20
2019-02-21T02:31:26.147Z,17.43
2019-02-21T02:33:51.926Z,15.93
2019-02-21T02:36:17.763Z,17.67
2019-02-21T02:38:43.502Z,17.70
2019-02-21T02:41:09.282Z,17.27
2019-02-21T02:43:35.032Z,18.87
2019-02-21T02:46:00.812Z,20.00
2019-02-21T02:48:26.566Z,18.77
2019-02-21T02:50:52.370Z,18.93
2019-02-21T02:53:18.141Z,20.27
2019-02-21T02:55:43.929Z,19.07
2019-02-21T02:58:09.699Z,19.60
2019-02-21T03:00:35.470Z,20.40
2019-02-21T03:03:01.229Z,18.83
2019-02-21T03:05:26.994Z,21.93
2019-02-21T03:07:52.748Z,19.77
2019-02-21T03:10:18.503Z,19.50
2019-02-21T03:12:44.250Z,20.57
2019-02-21T03:15:10.012Z,20.67
2019-02-21T03:17:35.762Z,21.60
2019-02-21T03:20:01.518Z,21.33
2019-02-21T03:22:27.285Z,22.30
2019-02-21T03:24:53.044Z,22.10
2019-02-21T03:27:18.806Z,22.43
2019-02-21T03:29:44.554Z,22.07
2019-02-21T03:32:10.384Z,22.73
2019-02-21T03:34:36.083Z,23.70
2019-02-21T03:37:01.875Z,26.03
2019-02-21T03:39:27.635Z,24.20
2019-02-21T03:41:53.424Z,27.10
2019-02-21T03:44:19.174Z,25.23
2019-02-21T03:46:44.947Z,25.53
2019-02-21T03:49:10.718Z,26.33
2019-02-21T03:51:36.495Z,27.87
2019-02-21T03:54:02.246Z,29.83
2019-02-21T03:56:28.012Z,25.73
2019-02-21T03:58:53.779Z,25.13
2019-02-21T04:01:19.673Z,26.53
2019-02-21T04:03:45.418Z,26.70
2019-02-21T04:06:11.203Z,26.33
2019-02-21T04:08:36.962Z,27.90
2019-02-21T04:11:02.726Z,26.27
2019-02-21T04:13:28.475Z,27.43
2019-02-21T04:15:54.342Z,29.90
2019-02-21T04:18:20.102Z,26.30
2019-02-21T04:20:45.841Z,29.77
2019-02-21T04:23:11.606Z,26.03
2019-02-21T04:25:37.350Z,25.77
2019-02-21T04:28:03.121Z,28.20
2019-02-21T04:30:28.875Z,26.83
2019-02-21T04:32:54.642Z,28.13
2019-02-21T04:35:20.390Z,27.87
2019-02-21T04:37:46.150Z,27.47
2019-02-21T04:40:11.921Z,29.67
2019-02-21T04:42:38.185Z,28.70
2019-02-21T04:45:04.838Z,29.50
2019-02-21T04:47:30.683Z,33.43
2019-02-21T04:49:56.456Z,30.23
2019-02-21T04:52:22.233Z,30.77
2019-02-21T04:54:47.993Z,30.47
2019-02-21T04:57:13.758Z,31.30
2019-02-21T04:59:39.513Z,31.43
2019-02-21T05:02:05.376Z,30.17
2019-02-21T05:04:31.128Z,30.80
2019-02-21T05:06:56.997Z,32.17
2019-02-21T05:09:22.735Z,34.37
2019-02-21T05:11:48.497Z,31.90
2019-02-21T05:14:14.246Z,31.97
2019-02-21T05:16:40.036Z,32.03
2019-02-21T05:19:05.772Z,31.27
2019-02-21T05:21:31.527Z,31.53
2019-02-21T05:23:57.291Z,32.00
2019-02-21T05:26:27.713Z,36.07
2019-02-21T05:28:53.479Z,32.17
2019-02-21T05:31:32.980Z,31.83
2019-02-21T05:34:00.681Z,34.10
2019-02-21T05:36:28.297Z,31.50
2019-02-21T05:38:55.972Z,33.03
2019-02-21T05:41:29.138Z,31.83
2019-02-21T05:44:02.611Z,31.63
2019-02-21T05:46:30.238Z,33.97
2019-02-21T05:48:57.899Z,31.17
2019-02-21T05:51:25.557Z,31.33
2019-02-21T05:53:55.774Z,32.07
2019-02-21T05:56:26.259Z,31.13
2019-02-21T05:58:53.997Z,30.97
2019-02-21T06:01:27.177Z,32.60
2019-02-21T06:03:57.377Z,29.87
2019-02-21T06:06:27.558Z,32.90
2019-02-21T06:08:57.989Z,30.87
2019-02-21T06:11:25.639Z,31.33
2019-02-21T06:13:58.842Z,31.30
2019-02-21T06:16:33.055Z,32.17
2019-02-21T06:19:03.324Z,31.37
2019-02-21T06:21:36.619Z,32.87
2019-02-21T06:24:06.805Z,32.03
2019-02-21T06:26:34.457Z,30.77
2019-02-21T06:29:04.626Z,32.07
2019-02-21T06:31:30.384Z,31.97
2019-02-21T06:33:56.140Z,32.37
2019-02-21T06:36:21.884Z,30.87
2019-02-21T06:38:47.649Z,30.90
2019-02-21T06:41:13.385Z,31.53
2019-02-21T06:43:39.130Z,29.43
2019-02-21T06:46:04.892Z,31.03
2019-02-21T06:48:30.646Z,31.67
2019-02-21T06:50:56.397Z,30.37
2019-02-21T06:53:22.166Z,31.47
2019-02-21T06:55:47.936Z,30.00
2019-02-21T06:58:13.687Z,29.77
2019-02-21T07:00:39.443Z,32.97
2019-02-21T07:03:15.126Z,30.03
2019-02-21T07:05:32.898Z,30.07
2019-02-21T07:07:58.653Z,32.57
2019-02-21T07:10:24.419Z,30.50
2019-02-21T07:12:50.162Z,31.40
2019-02-21T07:15:15.933Z,33.10
2019-02-21T07:17:48.783Z,31.37
2019-02-21T07:20:09.333Z,31.97
2019-02-21T07:22:35.081Z,33.03
2019-02-21T07:25:02.735Z,29.30
2019-02-21T07:27:28.495Z,33.17
2019-02-21T07:29:54.247Z,32.87
2019-02-21T07:32:19.991Z,30.40
2019-02-21T07:34:45.753Z,31.93
2019-02-21T07:37:18.611Z,31.10
2019-02-21T07:39:39.160Z,31.27
2019-02-21T07:42:04.917Z,32.07
2019-02-21T07:44:30.667Z,30.80
2019-02-21T07:46:56.431Z,32.27
2019-02-21T07:49:22.174Z,32.53
2019-02-21T07:51:47.952Z,31.17
2019-02-21T07:54:13.699Z,33.50
2019-02-21T07:56:42.310Z,32.30
2019-02-21T07:59:07.161Z,33.40
2019-02-21T08:01:32.884Z,34.30
2019-02-21T08:03:58.635Z,35.00
2019-02-21T08:06:24.387Z,33.37
2019-02-21T08:08:50.138Z,34.70
2019-02-21T08:11:15.902Z,33.87
2019-02-21T08:13:41.654Z,33.20
2019-02-21T08:16:07.419Z,33.43
2019-02-21T08:18:33.187Z,32.93
2019-02-21T08:20:58.952Z,32.93
2019-02-21T08:23:24.707Z,34.03
2019-02-21T08:25:50.451Z,34.37
2019-02-21T08:28:16.213Z,33.57
2019-02-21T08:30:41.959Z,32.50
2019-02-21T08:33:09.687Z,33.60
2019-02-21T08:35:35.444Z,37.90
2019-02-21T08:38:01.205Z,35.60
2019-02-21T08:40:26.978Z,31.33
2019-02-21T08:42:52.718Z,38.50
2019-02-21T08:45:18.457Z,35.20
2019-02-21T08:47:44.220Z,31.57
2019-02-21T08:50:09.975Z,34.90
2019-02-21T08:52:35.778Z,31.20
2019-02-21T08:55:01.505Z,33.57
2019-02-21T08:57:27.253Z,31.27
2019-02-21T08:59:53.002Z,31.60
2019-02-21T09:02:18.760Z,32.83
2019-02-21T09:04:44.506Z,33.37
2019-02-21T09:07:10.268Z,31.63
2019-02-21T09:09:36.021Z,35.53
2019-02-21T09:12:02.198Z,30.47
2019-02-21T09:14:27.935Z,33.70
2019-02-21T09:16:53.689Z,30.53
2019-02-21T09:19:19.445Z,30.13
2019-02-21T09:21:45.187Z,31.30
2019-02-21T09:24:13.633Z,31.23
2019-02-21T09:26:38.608Z,29.43
2019-02-21T09:29:04.370Z,32.47
2019-02-21T09:31:30.118Z,31.43
2019-02-21T09:33:56.079Z,28.90
2019-02-21T09:36:21.821Z,30.93
2019-02-21T09:38:47.656Z,35.27
2019-02-21T09:41:13.435Z,29.73
2019-02-21T09:43:39.197Z,31.27
2019-02-21T09:46:04.942Z,36.27
2019-02-21T09:48:30.702Z,30.43
2019-02-21T09:50:56.445Z,33.83
2019-02-21T09:53:22.230Z,31.27
2019-02-21T09:55:50.286Z,33.70
2019-02-21T09:58:15.654Z,35.70
2019-02-21T10:00:41.392Z,32.70
2019-02-21T10:03:07.161Z,36.17
2019-02-21T10:05:32.918Z,32.37
2019-02-21T10:07:58.660Z,33.47
2019-02-21T10:10:24.413Z,29.27
2019-02-21T10:12:50.170Z,31.73
2019-02-21T10:15:15.926Z,36.47
2019-02-21T10:17:41.676Z,40.33
2019-02-21T10:20:09.734Z,33.80
2019-02-21T10:22:35.588Z,33.10
2019-02-21T10:25:01.357Z,30.03
2019-02-21T10:27:27.106Z,38.40
2019-02-21T10:29:52.862Z,32.83
2019-02-21T10:32:18.609Z,34.33
2019-02-21T10:34:44.370Z,33.37
2019-02-21T10:37:10.116Z,35.23
2019-02-21T10:39:35.878Z,36.43
2019-02-21T10:42:01.626Z,36.37
2019-02-21T10:44:27.399Z,38.47
2019-02-21T10:46:53.150Z,36.20
2019-02-21T10:49:18.909Z,34.97
2019-02-21T10:51:44.661Z,33.30
2019-02-21T10:54:10.433Z,31.13
2019-02-21T10:56:36.188Z,32.17
2019-02-21T10:59:01.972Z,31.17
2019-02-21T11:01:27.722Z,32.87
2019-02-21T11:03:53.467Z,38.40
2019-02-21T11:06:19.230Z,35.03
2019-02-21T11:08:44.976Z,33.10
2019-02-21T11:11:10.744Z,34.93
2019-02-21T11:13:36.485Z,33.43
2019-02-21T11:16:02.247Z,31.13
2019-02-21T11:18:27.995Z,32.57
2019-02-21T11:20:53.753Z,34.97
2019-02-21T11:23:19.496Z,35.30
2019-02-21T11:25:45.252Z,33.13
2019-02-21T11:28:11.006Z,30.87
2019-02-21T11:30:36.755Z,30.40
2019-02-21T11:33:02.506Z,31.63
2019-02-21T11:35:28.266Z,38.27
2019-02-21T11:37:54.111Z,35.33
2019-02-21T11:40:19.867Z,40.47
2019-02-21T11:42:45.710Z,41.57
2019-02-21T11:45:15.435Z,35.27
2019-02-21T11:47:41.181Z,38.37
2019-02-21T11:50:17.156Z,30.23
2019-02-21T11:52:42.934Z,35.27
2019-02-21T11:55:10.936Z,39.27
2019-02-21T11:57:36.704Z,34.63
2019-02-21T12:00:09.013Z,43.20
2019-02-21T12:02:38.870Z,39.50
2019-02-21T12:05:03.153Z,42.73
2019-02-21T12:07:28.920Z,36.70
2019-02-21T12:09:54.666Z,38.60
2019-02-21T12:12:20.422Z,35.60
2019-02-21T12:14:46.174Z,37.53
2019-02-21T12:17:11.929Z,38.77
2019-02-21T12:19:37.673Z,39.40
2019-02-21T12:22:03.440Z,35.27
2019-02-21T12:24:29.187Z,41.23
2019-02-21T12:26:54.949Z,36.57
2019-02-21T12:29:20.695Z,38.87
2019-02-21T12:31:46.534Z,43.57
2019-02-21T12:34:12.301Z,43.80
2019-02-21T12:36:38.058Z,46.13
2019-02-21T12:39:04.706Z,37.20
2019-02-21T12:41:30.487Z,42.33
2019-02-21T12:43:56.232Z,40.83
2019-02-21T12:46:21.981Z,38.87
2019-02-21T12:48:47.740Z,44.80
2019-02-21T12:51:13.479Z,46.17
2019-02-21T12:53:39.255Z,40.60
2019-02-21T12:56:05.016Z,41.77
2019-02-21T12:58:30.777Z,44.03
2019-02-21T13:00:56.527Z,39.20
2019-02-21T13:03:22.283Z,45.30
2019-02-21T13:05:48.031Z,44.00
2019-02-21T13:08:13.786Z,42.67
2019-02-21T13:10:39.548Z,34.33
2019-02-21T13:13:05.300Z,40.90
2019-02-21T13:15:31.051Z,38.03
2019-02-21T13:17:56.817Z,43.60
2019-02-21T13:20:22.551Z,36.40
2019-02-21T13:22:48.314Z,45.60
2019-02-21T13:25:15.267Z,38.67
2019-02-21T13:27:41.028Z,45.03
2019-02-21T13:30:09.185Z,45.07
2019-02-21T13:32:34.938Z,50.00
2019-02-21T13:35:00.693Z,48.50
2019-02-21T13:37:29.112Z,52.80
2019-02-21T13:39:54.106Z,49.83
2019-02-21T13:42:19.854Z,48.57
2019-02-21T13:44:45.614Z,46.50
2019-02-21T13:47:11.356Z,54.73
2019-02-21T13:49:37.122Z,55.97
2019-02-21T13:52:02.871Z,61.87
2019-02-21T13:54:28.660Z,61.10
2019-02-21T13:56:54.398Z,67.03
2019-02-21T13:59:20.174Z,65.37
2019-02-21T14:01:45.967Z,69.10
2019-02-21T14:04:11.696Z,67.33
2019-02-21T14:06:37.442Z,69.43
2019-02-21T14:09:04.305Z,57.27
2019-02-21T14:11:30.786Z,59.20
2019-02-21T14:13:56.632Z,53.37
2019-02-21T14:16:22.378Z,55.17
2019-02-21T14:18:48.147Z,45.93
2019-02-21T14:21:13.885Z,49.80
2019-02-21T14:23:39.653Z,54.83
2019-02-21T14:26:05.397Z,52.33
2019-02-21T14:28:31.147Z,53.70
2019-02-21T14:30:56.907Z,46.90
2019-02-21T14:33:22.656Z,50.50
2019-02-21T14:35:48.438Z,47.77
2019-02-21T14:38:14.176Z,43.70
2019-02-21T14:40:39.935Z,44.87
2019-02-21T14:43:05.844Z,42.63
2019-02-21T14:45:31.605Z,51.67
2019-02-21T14:47:57.349Z,43.07
2019-02-21T14:50:23.110Z,52.43
2019-02-21T14:52:48.875Z,44.27
2019-02-21T14:55:16.045Z,52.33
2019-02-21T14:57:41.797Z,49.80
2019-02-21T15:00:13.897Z,51.67
2019-02-21T15:02:39.654Z,46.30
2019-02-21T15:05:05.650Z,43.20
2019-02-21T15:07:31.414Z,42.43
2019-02-21T15:09:57.199Z,41.87
2019-02-21T15:12:22.968Z,44.87
2019-02-21T15:14:48.744Z,39.60
2019-02-21T15:17:14.502Z,47.90
2019-02-21T15:19:40.248Z,43.10
2019-02-21T15:22:06.074Z,48.10
2019-02-21T15:24:31.827Z,48.47
2019-02-21T15:27:08.170Z,51.30
2019-02-21T15:29:25.248Z,44.93
2019-02-21T15:31:51.015Z,52.37
2019-02-21T15:34:16.757Z,42.40
2019-02-21T15:36:42.540Z,43.77
2019-02-21T15:39:08.295Z,46.60
2019-02-21T15:41:34.043Z,35.47
2019-02-21T15:43:59.814Z,39.20
2019-02-21T15:46:25.590Z,41.73
2019-02-21T15:48:51.338Z,44.37
2019-02-21T15:51:17.092Z,42.40
2019-02-21T15:53:42.864Z,39.77
2019-02-21T15:56:08.635Z,46.73
2019-02-21T15:58:34.383Z,39.13
2019-02-21T16:01:00.165Z,36.97
2019-02-21T16:03:25.917Z,38.73
2019-02-21T16:05:51.660Z,41.07
2019-02-21T16:08:17.423Z,37.63
2019-02-21T16:10:43.166Z,33.20
2019-02-21T16:13:09.030Z,30.60
2019-02-21T16:15:35.163Z,38.53
2019-02-21T16:18:01.028Z,39.37
2019-02-21T16:20:26.807Z,39.77
2019-02-21T16:22:52.542Z,37.30
2019-02-21T16:25:23.854Z,37.33
2019-02-21T16:27:49.621Z,37.40
2019-02-21T16:30:15.381Z,38.17
2019-02-21T16:32:41.149Z,39.00
2019-02-21T16:35:09.498Z,41.13
2019-02-21T16:37:35.265Z,35.87
2019-02-21T16:40:01.331Z,35.93
2019-02-21T16:42:27.093Z,40.60
2019-02-21T16:44:52.851Z,38.20
2019-02-21T16:47:18.641Z,45.67
2019-02-21T16:49:44.386Z,44.30
2019-02-21T16:52:10.160Z,41.50
2019-02-21T16:54:35.917Z,46.50
2019-02-21T16:57:01.688Z,40.43
2019-02-21T16:59:27.447Z,47.60
2019-02-21T17:01:53.197Z,45.53
2019-02-21T17:04:18.950Z,43.50
2019-02-21T17:06:44.696Z,42.70
2019-02-21T17:09:10.456Z,47.60
2019-02-21T17:11:36.203Z,41.60
2019-02-21T17:14:02.067Z,43.97
2019-02-21T17:16:27.814Z,42.67
2019-02-21T17:18:55.972Z,44.00
2019-02-21T17:21:21.251Z,43.77
2019-02-21T17:23:46.991Z,45.10
2019-02-21T17:26:12.736Z,48.80
2019-02-21T17:28:38.504Z,46.73
2019-02-21T17:31:04.246Z,50.67
2019-02-21T17:33:30.010Z,62.77
2019-02-21T17:35:55.765Z,55.93
2019-02-21T17:38:21.532Z,52.23
2019-02-21T17:40:47.275Z,51.10
2019-02-21T17:43:13.033Z,51.23
2019-02-21T17:45:38.775Z,57.33
2019-02-21T17:48:04.541Z,57.03
2019-02-21T17:50:30.353Z,61.67
2019-02-21T17:52:56.055Z,57.50
2019-02-21T17:55:21.814Z,72.13
2019-02-21T17:57:47.664Z,74.80
2019-02-21T18:00:17.622Z,77.10
2019-02-21T18:02:43.394Z,72.70
2019-02-21T18:05:09.459Z,66.07
2019-02-21T18:07:36.685Z,84.20
2019-02-21T18:10:05.384Z,74.57
2019-02-21T18:12:31.138Z,77.37
2019-02-21T18:14:56.907Z,71.70
2019-02-21T18:17:22.660Z,83.30
2019-02-21T18:19:48.514Z,74.37
2019-02-21T18:22:14.266Z,77.13
2019-02-21T18:24:40.034Z,79.40
2019-02-21T18:27:05.782Z,91.40
2019-02-21T18:29:31.552Z,99.13
2019-02-21T18:31:57.297Z,85.67
2019-02-21T18:34:23.061Z,88.90
2019-02-21T18:36:48.799Z,91.50
2019-02-21T18:39:15.163Z,101.40
2019-02-21T18:41:40.918Z,107.20
2019-02-21T18:44:06.662Z,108.30
2019-02-21T18:46:32.422Z,125.00
2019-02-21T18:48:58.164Z,128.27
2019-02-21T18:51:23.931Z,147.17
2019-02-21T18:53:49.703Z,108.33
2019-02-21T18:56:15.458Z,150.23
2019-02-21T18:58:41.205Z,164.50
2019-02-21T19:01:06.961Z,164.93
2019-02-21T19:03:32.704Z,144.43
2019-02-21T19:05:58.468Z,150.33
2019-02-21T19:08:24.216Z,151.83
2019-02-21T19:10:49.984Z,158.77
2019-02-21T19:13:15.734Z,153.03
2019-02-21T19:15:41.707Z,155.53
2019-02-21T19:18:07.465Z,173.47
2019-02-21T19:20:33.334Z,169.03
2019-02-21T19:22:59.088Z,186.33
2019-02-21T19:25:24.846Z,191.53
2019-02-21T19:27:50.593Z,172.10
2019-02-21T19:30:25.536Z,186.10
2019-02-21T19:32:50.698Z,198.73
2019-02-21T19:35:16.465Z,193.23
2019-02-21T19:37:42.227Z,203.33
2019-02-21T19:40:08.868Z,229.00
2019-02-21T19:42:34.635Z,209.03
2019-02-21T19:45:00.396Z,228.40
2019-02-21T19:47:26.256Z,206.77
2019-02-21T19:49:52.347Z,199.10
2019-02-21T19:52:18.216Z,189.83
2019-02-21T19:54:44.055Z,197.63
2019-02-21T19:57:09.971Z,204.17
2019-02-21T19:59:35.844Z,218.77
2019-02-21T20:02:01.766Z,258.53
2019-02-21T20:04:27.652Z,200.83
2019-02-21T20:06:53.632Z,252.47
2019-02-21T20:09:19.913Z,197.10
2019-02-21T20:11:45.726Z,230.83
2019-02-21T20:14:11.579Z,201.63
2019-02-21T20:16:37.458Z,206.77
2019-02-21T20:19:03.415Z,207.70
2019-02-21T20:21:29.294Z,211.70
2019-02-21T20:23:55.140Z,244.33
2019-02-21T20:26:21.002Z,244.47
2019-02-21T20:28:46.777Z,222.50
2019-02-21T20:31:12.638Z,199.07
2019-02-21T20:33:38.473Z,196.73
2019-02-21T20:36:04.307Z,208.83
2019-02-21T20:38:32.365Z,222.93
2019-02-21T20:40:57.973Z,242.00
2019-02-21T20:43:23.843Z,233.17
2019-02-21T20:45:52.997Z,252.57
2019-02-21T20:48:17.540Z,222.60
2019-02-21T20:50:43.401Z,218.30
2019-02-21T20:53:09.551Z,209.47
2019-02-21T20:55:43.359Z,201.73
2019-02-21T20:58:03.180Z,253.67
2019-02-21T21:00:29.067Z,239.33
2019-02-21T21:02:54.910Z,204.13
2019-02-21T21:05:21.660Z,223.03
2019-02-21T21:07:48.498Z,245.40
2019-02-21T21:10:16.159Z,219.97
2019-02-21T21:12:42.054Z,202.33
2019-02-21T21:15:09.730Z,224.60
2019-02-21T21:17:35.660Z,238.43
2019-02-21T21:20:01.453Z,218.57
2019-02-21T21:22:27.256Z,199.43
2019-02-21T21:24:53.073Z,213.63
2019-02-21T21:27:18.879Z,213.07
2019-02-21T21:29:44.734Z,218.83
2019-02-21T21:32:10.484Z,227.93
2019-02-21T21:34:36.243Z,205.03
2019-02-21T21:37:01.987Z,198.70
2019-02-21T21:39:27.747Z,159.77
2019-02-21T21:41:53.512Z,169.40
2019-02-21T21:44:19.281Z,165.27
2019-02-21T21:46:45.137Z,185.97
2019-02-21T21:49:10.904Z,185.97
2019-02-21T21:51:36.659Z,215.53
2019-02-21T21:54:02.426Z,247.07
2019-02-21T21:56:28.194Z,252.50
2019-02-21T21:58:53.952Z,226.87
2019-02-21T22:01:19.713Z,269.90
2019-02-21T22:03:45.452Z,260.47
2019-02-21T22:06:11.219Z,305.33
2019-02-21T22:08:36.961Z,335.60
2019-02-21T22:11:02.720Z,307.77
2019-02-21T22:13:28.462Z,291.40
2019-02-21T22:15:54.226Z,297.87
2019-02-21T22:18:19.970Z,371.40
2019-02-21T22:20:45.734Z,321.17
2019-02-21T22:23:11.482Z,355.63
2019-02-21T22:25:37.428Z,276.40
2019-02-21T22:28:03.186Z,359.10
2019-02-21T22:30:28.934Z,282.20
2019-02-21T22:32:54.696Z,317.87
2019-02-21T22:35:20.441Z,353.37
2019-02-21T22:37:46.201Z,313.90
2019-02-21T22:40:20.751Z,330.63
2019-02-21T22:42:46.516Z,332.03
2019-02-21T22:45:12.270Z,383.10
2019-02-21T22:47:38.032Z,313.33
2019-02-21T22:50:10.296Z,350.27
2019-02-21T22:52:36.055Z,331.47
2019-02-21T22:55:09.636Z,356.80
2019-02-21T22:57:31.302Z,349.17
2019-02-21T22:59:57.057Z,343.20
2019-02-21T23:02:23.211Z,360.40
2019-02-21T23:04:55.930Z,339.07
2019-02-21T23:07:25.491Z,360.03
2019-02-21T23:09:51.239Z,288.23
2019-02-21T23:12:17.002Z,320.23
2019-02-21T23:14:42.748Z,304.07
2019-02-21T23:17:08.502Z,292.33
2019-02-21T23:19:34.344Z,244.33
2019-02-21T23:22:00.097Z,280.43
2019-02-21T23:24:25.851Z,202.33
2019-02-21T23:26:53.519Z,203.50
2019-02-21T23:29:19.258Z,185.93
2019-02-21T23:31:44.996Z,186.17
2019-02-21T23:34:18.423Z,199.30
2019-02-21T23:36:44.177Z,173.10
2019-02-21T23:39:09.934Z,160.93
2019-02-21T23:41:35.687Z,156.47
2019-02-21T23:44:01.455Z,132.77
2019-02-21T23:46:27.195Z,137.40
2019-02-21T23:48:52.950Z,129.10
2019-02-21T23:51:18.692Z,81.47
2019-02-21T23:53:44.539Z,85.50
2019-02-21T23:56:10.317Z,91.83
2019-02-21T23:58:36.084Z,97.13
